sensor_id;sensor_type;location;lat;lon;timestamp;pressure;altitude;pressure_sealevel;temperature;humidity
46392;BME280;32098;49.448;7.904;2023-02-04T00:02:03;99513.56;;;6.19;93.06
46392;BME280;32098;49.448;7.904;2023-02-04T00:04:30;99526.00;;;6.27;92.55
46392;BME280;32098;49.448;7.904;2023-02-04T00:06:56;99525.03;;;6.03;93.43
46392;BME280;32098;49.448;7.904;2023-02-04T00:09:22;99544.06;;;6.07;93.87
46392;BME280;32098;49.448;7.904;2023-02-04T00:11:49;99526.22;;;5.93;93.77
46392;BME280;32098;49.448;7.904;2023-02-04T00:14:15;99542.44;;;5.98;94.59
46392;BME280;32098;49.448;7.904;2023-02-04T00:16:42;99543.47;;;5.89;94.98
46392;BME280;32098;49.448;7.904;2023-02-04T00:19:08;99474.88;;;5.21;97.85
46392;BME280;32098;49.448;7.904;2023-02-04T00:21:35;99540.16;;;5.71;97.42
46392;BME280;32098;49.448;7.904;2023-02-04T00:24:01;99545.13;;;5.66;97.47
46392;BME280;32098;49.448;7.904;2023-02-04T00:26:28;99552.22;;;5.41;100.00
46392;BME280;32098;49.448;7.904;2023-02-04T00:28:54;99537.94;;;5.26;100.00
46392;BME280;32098;49.448;7.904;2023-02-04T00:31:21;99547.28;;;5.54;100.00
46392;BME280;32098;49.448;7.904;2023-02-04T00:33:48;99457.97;;;4.90;100.00
46392;BME280;32098;49.448;7.904;2023-02-04T00:36:15;99538.16;;;5.49;99.74
46392;BME280;32098;49.448;7.904;2023-02-04T00:38:41;99523.56;;;5.45;99.03
46392;BME280;32098;49.448;7.904;2023-02-04T00:41:08;99546.44;;;5.54;99.65
46392;BME280;32098;49.448;7.904;2023-02-04T00:43:34;99556.38;;;5.60;99.35
46392;BME280;32098;49.448;7.904;2023-02-04T00:46:03;99514.81;;;5.44;98.68
46392;BME280;32098;49.448;7.904;2023-02-04T00:48:30;99539.00;;;5.65;98.13
46392;BME280;32098;49.448;7.904;2023-02-04T00:50:56;99559.88;;;5.76;97.45
46392;BME280;32098;49.448;7.904;2023-02-04T00:53:23;99557.88;;;5.86;97.00
46392;BME280;32098;49.448;7.904;2023-02-04T00:55:49;99551.91;;;5.84;96.63
46392;BME280;32098;49.448;7.904;2023-02-04T00:58:15;99553.75;;;5.84;96.41
46392;BME280;32098;49.448;7.904;2023-02-04T01:00:42;99553.75;;;5.84;95.70
46392;BME280;32098;49.448;7.904;2023-02-04T01:03:09;99562.50;;;5.84;96.13
46392;BME280;32098;49.448;7.904;2023-02-04T01:05:35;99563.69;;;5.74;95.79
46392;BME280;32098;49.448;7.904;2023-02-04T01:08:03;99575.44;;;5.63;96.82
46392;BME280;32098;49.448;7.904;2023-02-04T01:10:30;99569.78;;;5.50;96.87
46392;BME280;32098;49.448;7.904;2023-02-04T01:12:57;99586.19;;;5.62;96.36
46392;BME280;32098;49.448;7.904;2023-02-04T01:15:25;99578.22;;;5.62;96.05
46392;BME280;32098;49.448;7.904;2023-02-04T01:17:52;99579.91;;;5.71;95.54
46392;BME280;32098;49.448;7.904;2023-02-04T01:20:19;99566.81;;;5.77;94.99
46392;BME280;32098;49.448;7.904;2023-02-04T01:22:47;99571.47;;;5.75;94.41
46392;BME280;32098;49.448;7.904;2023-02-04T01:25:13;99472.38;;;5.04;94.50
46392;BME280;32098;49.448;7.904;2023-02-04T01:27:41;99582.56;;;5.63;93.85
46392;BME280;32098;49.448;7.904;2023-02-04T01:30:08;99574.78;;;5.61;94.49
46392;BME280;32098;49.448;7.904;2023-02-04T01:32:36;99576.59;;;5.61;93.92
46392;BME280;32098;49.448;7.904;2023-02-04T01:35:03;99570.63;;;5.59;93.35
46392;BME280;32098;49.448;7.904;2023-02-04T01:37:31;99574.78;;;5.61;93.31
46392;BME280;32098;49.448;7.904;2023-02-04T01:39:58;99583.22;;;5.65;93.24
46392;BME280;32098;49.448;7.904;2023-02-04T01:42:24;99575.09;;;5.58;92.75
46392;BME280;32098;49.448;7.904;2023-02-04T01:44:51;99568.28;;;5.48;92.25
46392;BME280;32098;49.448;7.904;2023-02-04T01:47:20;99578.56;;;5.51;92.48
46392;BME280;32098;49.448;7.904;2023-02-04T01:49:50;99584.53;;;5.53;91.48
46392;BME280;32098;49.448;7.904;2023-02-04T01:52:18;99585.69;;;5.58;91.51
46392;BME280;32098;49.448;7.904;2023-02-04T01:54:45;99598.66;;;5.19;91.04
46392;BME280;32098;49.448;7.904;2023-02-04T01:57:14;99594.34;;;5.10;90.31
46392;BME280;32098;49.448;7.904;2023-02-04T01:59:45;99592.88;;;5.16;90.67
46392;BME280;32098;49.448;7.904;2023-02-04T02:02:41;99593.03;;;5.06;91.19
46392;BME280;32098;49.448;7.904;2023-02-04T02:05:11;99594.34;;;5.10;90.18
46392;BME280;32098;49.448;7.904;2023-02-04T02:07:38;99579.13;;;5.12;89.55
46392;BME280;32098;49.448;7.904;2023-02-04T02:10:06;99604.59;;;5.05;89.03
46392;BME280;32098;49.448;7.904;2023-02-04T02:12:35;99596.59;;;4.97;89.44
46392;BME280;32098;49.448;7.904;2023-02-04T02:15:02;99609.88;;;5.05;89.00
46392;BME280;32098;49.448;7.904;2023-02-04T02:17:29;99600.31;;;5.12;89.36
46392;BME280;32098;49.448;7.904;2023-02-04T02:19:56;99590.03;;;5.09;88.72
46392;BME280;32098;49.448;7.904;2023-02-04T02:22:29;99611.03;;;5.03;87.87
46392;BME280;32098;49.448;7.904;2023-02-04T02:24:58;99607.72;;;4.67;88.35
46392;BME280;32098;49.448;7.904;2023-02-04T02:27:25;99578.25;;;4.62;87.97
46392;BME280;32098;49.448;7.904;2023-02-04T02:29:51;99606.88;;;5.00;87.47
46392;BME280;32098;49.448;7.904;2023-02-04T02:32:18;99601.91;;;4.97;88.29
46392;BME280;32098;49.448;7.904;2023-02-04T02:34:45;99596.56;;;4.81;88.10
46392;BME280;32098;49.448;7.904;2023-02-04T02:37:12;99610.03;;;4.96;87.86
46392;BME280;32098;49.448;7.904;2023-02-04T02:39:41;99612.59;;;4.80;87.54
46392;BME280;32098;49.448;7.904;2023-02-04T02:42:14;99622.88;;;4.49;88.67
46392;BME280;32098;49.448;7.904;2023-02-04T02:44:43;99622.44;;;4.36;88.78
46392;BME280;32098;49.448;7.904;2023-02-04T02:47:15;99618.81;;;4.37;89.87
46392;BME280;32098;49.448;7.904;2023-02-04T02:49:42;99617.00;;;4.37;89.73
46392;BME280;32098;49.448;7.904;2023-02-04T02:52:11;99621.81;;;4.42;89.95
46392;BME280;32098;49.448;7.904;2023-02-04T02:54:38;99627.31;;;4.23;89.56
46392;BME280;32098;49.448;7.904;2023-02-04T02:57:12;99625.88;;;4.28;89.66
46392;BME280;32098;49.448;7.904;2023-02-04T02:59:39;99634.38;;;4.40;90.12
46392;BME280;32098;49.448;7.904;2023-02-04T03:02:06;99637.97;;;4.56;89.23
46392;BME280;32098;49.448;7.904;2023-02-04T03:04:39;99639.34;;;4.43;89.00
46392;BME280;32098;49.448;7.904;2023-02-04T03:07:09;99635.19;;;4.66;88.72
46392;BME280;32098;49.448;7.904;2023-02-04T03:09:36;99630.31;;;4.53;88.09
46392;BME280;32098;49.448;7.904;2023-02-04T03:12:04;99642.06;;;4.51;88.68
46392;BME280;32098;49.448;7.904;2023-02-04T03:14:33;99658.44;;;4.54;88.12
46392;BME280;32098;49.448;7.904;2023-02-04T03:17:01;99661.66;;;4.66;87.74
46392;BME280;32098;49.448;7.904;2023-02-04T03:19:29;99664.34;;;4.74;88.11
46392;BME280;32098;49.448;7.904;2023-02-04T03:21:55;99671.09;;;4.68;87.94
46392;BME280;32098;49.448;7.904;2023-02-04T03:24:23;99674.66;;;4.59;88.62
46392;BME280;32098;49.448;7.904;2023-02-04T03:26:50;99646.31;;;4.44;88.54
46392;BME280;32098;49.448;7.904;2023-02-04T03:29:17;99683.84;;;4.47;89.66
46392;BME280;32098;49.448;7.904;2023-02-04T03:31:43;99681.16;;;4.65;89.86
46392;BME280;32098;49.448;7.904;2023-02-04T03:34:10;99687.47;;;4.72;89.28
46392;BME280;32098;49.448;7.904;2023-02-04T03:36:37;99690.59;;;4.67;89.12
46392;BME280;32098;49.448;7.904;2023-02-04T03:39:03;99691.25;;;4.69;88.62
46392;BME280;32098;49.448;7.904;2023-02-04T03:41:30;99692.78;;;4.72;89.09
46392;BME280;32098;49.448;7.904;2023-02-04T03:43:57;99698.69;;;4.66;88.70
46392;BME280;32098;49.448;7.904;2023-02-04T03:46:24;99681.78;;;4.59;88.65
46392;BME280;32098;49.448;7.904;2023-02-04T03:48:51;99697.75;;;4.75;89.35
46392;BME280;32098;49.448;7.904;2023-02-04T03:51:17;99692.47;;;4.75;88.67
46392;BME280;32098;49.448;7.904;2023-02-04T03:53:44;99692.66;;;4.82;88.88
46392;BME280;32098;49.448;7.904;2023-02-04T03:56:10;99707.38;;;4.84;89.16
46392;BME280;32098;49.448;7.904;2023-02-04T03:58:37;99696.19;;;4.90;88.94
46392;BME280;32098;49.448;7.904;2023-02-04T04:01:03;99704.50;;;4.95;88.73
46392;BME280;32098;49.448;7.904;2023-02-04T04:03:30;99705.00;;;4.99;88.67
46392;BME280;32098;49.448;7.904;2023-02-04T04:05:56;99683.00;;;4.98;87.46
46392;BME280;32098;49.448;7.904;2023-02-04T04:08:23;99678.31;;;4.92;87.95
46392;BME280;32098;49.448;7.904;2023-02-04T04:10:50;99688.44;;;4.97;87.26
46392;BME280;32098;49.448;7.904;2023-02-04T04:13:17;99694.72;;;4.96;87.11
46392;BME280;32098;49.448;7.904;2023-02-04T04:15:43;99704.31;;;4.97;86.88
46392;BME280;32098;49.448;7.904;2023-02-04T04:18:10;99709.47;;;4.98;86.78
46392;BME280;32098;49.448;7.904;2023-02-04T04:20:37;99708.16;;;5.02;87.00
46392;BME280;32098;49.448;7.904;2023-02-04T04:23:03;99718.75;;;5.02;86.73
46392;BME280;32098;49.448;7.904;2023-02-04T04:25:30;99680.91;;;4.84;87.04
46392;BME280;32098;49.448;7.904;2023-02-04T04:27:56;99694.50;;;4.89;86.79
46392;BME280;32098;49.448;7.904;2023-02-04T04:30:23;99698.88;;;4.98;87.28
46392;BME280;32098;49.448;7.904;2023-02-04T04:32:50;99701.84;;;4.95;87.15
46392;BME280;32098;49.448;7.904;2023-02-04T04:35:16;99708.94;;;4.95;87.68
46392;BME280;32098;49.448;7.904;2023-02-04T04:37:43;99709.63;;;4.97;87.26
46392;BME280;32098;49.448;7.904;2023-02-04T04:40:11;99712.91;;;4.91;87.39
46392;BME280;32098;49.448;7.904;2023-02-04T04:42:38;99720.19;;;4.89;87.35
46392;BME280;32098;49.448;7.904;2023-02-04T04:45:07;99723.50;;;4.91;87.93
46392;BME280;32098;49.448;7.904;2023-02-04T04:47:34;99718.69;;;4.94;87.49
46392;BME280;32098;49.448;7.904;2023-02-04T04:50:00;99705.09;;;4.81;87.64
46392;BME280;32098;49.448;7.904;2023-02-04T04:52:27;99724.84;;;4.95;87.65
46392;BME280;32098;49.448;7.904;2023-02-04T04:54:53;99700.03;;;4.70;87.40
46392;BME280;32098;49.448;7.904;2023-02-04T04:57:22;99722.66;;;4.90;87.86
46392;BME280;32098;49.448;7.904;2023-02-04T04:59:48;99734.22;;;4.89;87.28
46392;BME280;32098;49.448;7.904;2023-02-04T05:02:15;99729.94;;;4.88;87.13
46392;BME280;32098;49.448;7.904;2023-02-04T05:04:41;99732.94;;;4.93;86.82
46392;BME280;32098;49.448;7.904;2023-02-04T05:07:08;99726.75;;;4.85;87.73
46392;BME280;32098;49.448;7.904;2023-02-04T05:09:34;99730.72;;;4.81;87.71
46392;BME280;32098;49.448;7.904;2023-02-04T05:12:01;99738.72;;;4.89;87.17
46392;BME280;32098;49.448;7.904;2023-02-04T05:14:28;99736.38;;;4.86;87.83
46392;BME280;32098;49.448;7.904;2023-02-04T05:16:54;99731.22;;;4.84;87.39
46392;BME280;32098;49.448;7.904;2023-02-04T05:19:20;99699.19;;;4.69;87.76
46392;BME280;32098;49.448;7.904;2023-02-04T05:21:47;99695.69;;;4.61;87.69
46392;BME280;32098;49.448;7.904;2023-02-04T05:24:13;99725.91;;;4.84;87.34
46392;BME280;32098;49.448;7.904;2023-02-04T05:26:40;99719.47;;;4.87;87.40
46392;BME280;32098;49.448;7.904;2023-02-04T05:29:06;99632.59;;;4.23;87.21
46392;BME280;32098;49.448;7.904;2023-02-04T05:31:35;99707.91;;;4.88;87.47
46392;BME280;32098;49.448;7.904;2023-02-04T05:34:02;99711.88;;;4.84;87.23
46392;BME280;32098;49.448;7.904;2023-02-04T05:36:29;99713.03;;;4.81;87.97
46392;BME280;32098;49.448;7.904;2023-02-04T05:38:55;99719.66;;;4.85;87.17
46392;BME280;32098;49.448;7.904;2023-02-04T05:41:21;99726.25;;;4.81;87.61
46392;BME280;32098;49.448;7.904;2023-02-04T05:43:48;99723.59;;;4.81;86.92
46392;BME280;32098;49.448;7.904;2023-02-04T05:46:14;99720.50;;;4.86;86.91
46392;BME280;32098;49.448;7.904;2023-02-04T05:48:41;99730.84;;;4.79;87.33
46392;BME280;32098;49.448;7.904;2023-02-04T05:51:07;99729.31;;;4.68;87.13
46392;BME280;32098;49.448;7.904;2023-02-04T05:53:34;99741.78;;;4.76;87.37
46392;BME280;32098;49.448;7.904;2023-02-04T05:56:01;99748.59;;;4.87;87.41
46392;BME280;32098;49.448;7.904;2023-02-04T05:58:27;99751.13;;;4.88;86.79
46392;BME280;32098;49.448;7.904;2023-02-04T06:01:02;99759.53;;;4.84;87.24
46392;BME280;32098;49.448;7.904;2023-02-04T06:03:30;99780.47;;;4.77;86.90
46392;BME280;32098;49.448;7.904;2023-02-04T06:05:56;99781.50;;;4.84;86.75
46392;BME280;32098;49.448;7.904;2023-02-04T06:08:23;99778.72;;;4.86;87.02
46392;BME280;32098;49.448;7.904;2023-02-04T06:10:49;99748.59;;;4.61;87.88
46392;BME280;32098;49.448;7.904;2023-02-04T06:13:16;99787.06;;;4.73;87.17
46392;BME280;32098;49.448;7.904;2023-02-04T06:15:43;99790.53;;;4.73;87.03
46392;BME280;32098;49.448;7.904;2023-02-04T06:18:09;99792.25;;;4.83;86.63
46392;BME280;32098;49.448;7.904;2023-02-04T06:20:36;99795.38;;;4.78;86.50
46392;BME280;32098;49.448;7.904;2023-02-04T06:23:02;99807.94;;;4.76;87.15
46392;BME280;32098;49.448;7.904;2023-02-04T06:25:29;99817.31;;;4.70;86.94
46392;BME280;32098;49.448;7.904;2023-02-04T06:27:55;99805.88;;;4.70;87.16
46392;BME280;32098;49.448;7.904;2023-02-04T06:30:22;99806.25;;;4.75;88.08
46392;BME280;32098;49.448;7.904;2023-02-04T06:32:48;99803.16;;;4.80;87.65
46392;BME280;32098;49.448;7.904;2023-02-04T06:35:15;99798.63;;;4.72;88.23
46392;BME280;32098;49.448;7.904;2023-02-04T06:37:41;99808.06;;;4.74;88.07
46392;BME280;32098;49.448;7.904;2023-02-04T06:40:09;99808.59;;;4.78;87.98
46392;BME280;32098;49.448;7.904;2023-02-04T06:42:36;99795.31;;;4.70;87.55
46392;BME280;32098;49.448;7.904;2023-02-04T06:45:03;99804.97;;;4.79;87.95
46392;BME280;32098;49.448;7.904;2023-02-04T06:47:30;99811.56;;;4.75;88.01
46392;BME280;32098;49.448;7.904;2023-02-04T06:49:56;99809.94;;;4.82;87.88
46392;BME280;32098;49.448;7.904;2023-02-04T06:52:23;99799.75;;;4.69;87.43
46392;BME280;32098;49.448;7.904;2023-02-04T06:54:49;99822.69;;;4.79;87.11
46392;BME280;32098;49.448;7.904;2023-02-04T06:57:16;99823.44;;;4.71;87.92
46392;BME280;32098;49.448;7.904;2023-02-04T06:59:42;99823.16;;;4.74;88.32
46392;BME280;32098;49.448;7.904;2023-02-04T07:02:10;99797.88;;;4.62;88.38
46392;BME280;32098;49.448;7.904;2023-02-04T07:04:38;99832.22;;;4.71;88.55
46392;BME280;32098;49.448;7.904;2023-02-04T07:07:04;99833.41;;;4.77;88.05
46392;BME280;32098;49.448;7.904;2023-02-04T07:09:31;99851.25;;;4.75;87.86
46392;BME280;32098;49.448;7.904;2023-02-04T07:11:57;99850.13;;;4.78;86.78
46392;BME280;32098;49.448;7.904;2023-02-04T07:14:24;99842.34;;;4.76;86.92
46392;BME280;32098;49.448;7.904;2023-02-04T07:16:50;99846.25;;;4.72;86.48
46392;BME280;32098;49.448;7.904;2023-02-04T07:19:17;99858.81;;;4.70;86.83
46392;BME280;32098;49.448;7.904;2023-02-04T07:21:46;99855.19;;;4.71;87.23
46392;BME280;32098;49.448;7.904;2023-02-04T07:24:12;99864.28;;;4.68;87.21
46392;BME280;32098;49.448;7.904;2023-02-04T07:26:39;99865.50;;;4.74;86.48
46392;BME280;32098;49.448;7.904;2023-02-04T07:29:06;99861.63;;;4.68;87.50
46392;BME280;32098;49.448;7.904;2023-02-04T07:31:40;99860.13;;;4.66;88.20
46392;BME280;32098;49.448;7.904;2023-02-04T07:34:06;99842.81;;;4.54;87.94
46392;BME280;32098;49.448;7.904;2023-02-04T07:36:33;99855.78;;;4.65;88.38
46392;BME280;32098;49.448;7.904;2023-02-04T07:38:59;99864.09;;;4.70;87.64
46392;BME280;32098;49.448;7.904;2023-02-04T07:41:26;99865.50;;;4.74;87.52
46392;BME280;32098;49.448;7.904;2023-02-04T07:43:52;99873.09;;;4.77;87.10
46392;BME280;32098;49.448;7.904;2023-02-04T07:46:19;99882.19;;;4.74;86.97
46392;BME280;32098;49.448;7.904;2023-02-04T07:48:45;99894.66;;;4.82;86.77
46392;BME280;32098;49.448;7.904;2023-02-04T07:51:12;99901.53;;;4.75;87.37
46392;BME280;32098;49.448;7.904;2023-02-04T07:53:38;99905.88;;;4.76;87.11
46392;BME280;32098;49.448;7.904;2023-02-04T07:56:05;99903.69;;;4.71;87.07
46392;BME280;32098;49.448;7.904;2023-02-04T07:58:31;99910.09;;;4.69;87.68
46392;BME280;32098;49.448;7.904;2023-02-04T08:00:58;99900.31;;;4.69;87.53
46392;BME280;32098;49.448;7.904;2023-02-04T08:03:25;99904.19;;;4.75;87.86
46392;BME280;32098;49.448;7.904;2023-02-04T08:05:51;99904.47;;;4.72;88.62
46392;BME280;32098;49.448;7.904;2023-02-04T08:08:18;99906.00;;;4.74;88.47
46392;BME280;32098;49.448;7.904;2023-02-04T08:10:45;99909.25;;;4.86;88.12
46392;BME280;32098;49.448;7.904;2023-02-04T08:13:12;99914.69;;;5.63;100.00
46392;BME280;32098;49.448;7.904;2023-02-04T08:15:38;99913.97;;;6.21;100.00
46392;BME280;32098;49.448;7.904;2023-02-04T08:18:05;99921.84;;;6.04;92.41
46392;BME280;32098;49.448;7.904;2023-02-04T08:20:32;99917.75;;;5.84;85.23
46392;BME280;32098;49.448;7.904;2023-02-04T08:22:59;99930.47;;;5.73;83.24
46392;BME280;32098;49.448;7.904;2023-02-04T08:25:25;99930.78;;;5.70;83.36
46392;BME280;32098;49.448;7.904;2023-02-04T08:27:54;99935.94;;;5.46;82.78
46392;BME280;32098;49.448;7.904;2023-02-04T08:30:21;99935.03;;;5.37;83.81
46392;BME280;32098;49.448;7.904;2023-02-04T08:32:47;99936.13;;;5.26;84.40
46392;BME280;32098;49.448;7.904;2023-02-04T08:35:14;99941.81;;;5.22;84.93
46392;BME280;32098;49.448;7.904;2023-02-04T08:37:41;99938.59;;;5.28;85.27
46392;BME280;32098;49.448;7.904;2023-02-04T08:40:08;99914.00;;;5.35;85.26
46392;BME280;32098;49.448;7.904;2023-02-04T08:42:35;99922.94;;;5.86;85.08
46392;BME280;32098;49.448;7.904;2023-02-04T08:45:02;99938.72;;;6.29;84.37
46392;BME280;32098;49.448;7.904;2023-02-04T08:47:29;99954.03;;;6.51;82.03
46392;BME280;32098;49.448;7.904;2023-02-04T08:49:55;99954.88;;;6.60;81.40
46392;BME280;32098;49.448;7.904;2023-02-04T08:52:22;99954.50;;;6.39;78.61
46392;BME280;32098;49.448;7.904;2023-02-04T08:54:49;99945.63;;;6.22;78.62
46392;BME280;32098;49.448;7.904;2023-02-04T08:57:15;99948.94;;;6.16;78.89
46392;BME280;32098;49.448;7.904;2023-02-04T08:59:41;99916.97;;;5.92;81.20
46392;BME280;32098;49.448;7.904;2023-02-04T09:02:08;99947.38;;;6.06;81.81
46392;BME280;32098;49.448;7.904;2023-02-04T09:04:35;99951.81;;;5.97;82.52
46392;BME280;32098;49.448;7.904;2023-02-04T09:07:02;99958.78;;;5.98;83.07
46392;BME280;32098;49.448;7.904;2023-02-04T09:09:29;99959.94;;;5.95;82.69
46392;BME280;32098;49.448;7.904;2023-02-04T09:11:55;99959.25;;;5.93;82.50
46392;BME280;32098;49.448;7.904;2023-02-04T09:14:22;99960.88;;;5.86;81.54
46392;BME280;32098;49.448;7.904;2023-02-04T09:16:48;99957.09;;;5.89;81.88
46392;BME280;32098;49.448;7.904;2023-02-04T09:19:15;99956.75;;;5.92;82.31
46392;BME280;32098;49.448;7.904;2023-02-04T09:21:44;99964.69;;;5.92;82.77
46392;BME280;32098;49.448;7.904;2023-02-04T09:24:11;99961.03;;;5.85;83.01
46392;BME280;32098;49.448;7.904;2023-02-04T09:26:37;99974.28;;;5.85;82.65
46392;BME280;32098;49.448;7.904;2023-02-04T09:29:04;99974.59;;;5.82;82.24
46392;BME280;32098;49.448;7.904;2023-02-04T09:31:30;99975.06;;;5.77;83.14
46392;BME280;32098;49.448;7.904;2023-02-04T09:33:57;99979.53;;;5.77;82.86
46392;BME280;32098;49.448;7.904;2023-02-04T09:36:25;99987.47;;;5.77;83.16
46392;BME280;32098;49.448;7.904;2023-02-04T09:38:55;99990.91;;;5.69;83.09
46392;BME280;32098;49.448;7.904;2023-02-04T09:41:21;99988.41;;;5.68;83.44
46392;BME280;32098;49.448;7.904;2023-02-04T09:43:48;99987.59;;;5.67;83.74
46392;BME280;32098;49.448;7.904;2023-02-04T09:46:21;99989.38;;;5.67;82.92
46392;BME280;32098;49.448;7.904;2023-02-04T09:48:49;99988.94;;;5.71;83.14
46392;BME280;32098;49.448;7.904;2023-02-04T09:51:19;99989.47;;;5.75;82.96
46392;BME280;32098;49.448;7.904;2023-02-04T09:53:47;99992.47;;;5.80;82.88
46392;BME280;32098;49.448;7.904;2023-02-04T09:56:14;99971.69;;;5.67;83.13
46392;BME280;32098;49.448;7.904;2023-02-04T09:58:40;99989.56;;;5.91;83.48
46392;BME280;32098;49.448;7.904;2023-02-04T10:01:16;99994.56;;;5.94;83.84
46392;BME280;32098;49.448;7.904;2023-02-04T10:03:45;100001.69;;;5.93;83.17
46392;BME280;32098;49.448;7.904;2023-02-04T10:06:18;99978.53;;;5.78;83.14
46392;BME280;32098;49.448;7.904;2023-02-04T10:08:47;99927.25;;;5.35;82.19
46392;BME280;32098;49.448;7.904;2023-02-04T10:11:16;99999.88;;;5.94;82.18
46392;BME280;32098;49.448;7.904;2023-02-04T10:13:49;100000.25;;;6.07;81.71
46392;BME280;32098;49.448;7.904;2023-02-04T10:16:22;100014.09;;;6.19;81.51
46392;BME280;32098;49.448;7.904;2023-02-04T10:18:59;100015.13;;;6.26;81.36
46392;BME280;32098;49.448;7.904;2023-02-04T10:21:29;100014.66;;;6.30;81.30
46392;BME280;32098;49.448;7.904;2023-02-04T10:23:58;100023.56;;;6.21;78.61
46392;BME280;32098;49.448;7.904;2023-02-04T10:26:28;100016.63;;;6.28;78.96
46392;BME280;32098;49.448;7.904;2023-02-04T10:29:02;100016.47;;;6.30;79.13
46392;BME280;32098;49.448;7.904;2023-02-04T10:32:44;100022.47;;;6.32;78.50
46392;BME280;32098;49.448;7.904;2023-02-04T10:35:46;100023.88;;;6.18;76.31
46392;BME280;32098;49.448;7.904;2023-02-04T10:38:13;100027.63;;;6.08;76.07
46392;BME280;32098;49.448;7.904;2023-02-04T10:40:40;100021.47;;;6.07;77.13
46392;BME280;32098;49.448;7.904;2023-02-04T10:43:09;100023.25;;;6.24;78.31
46392;BME280;32098;49.448;7.904;2023-02-04T10:45:36;100026.41;;;6.02;75.59
46392;BME280;32098;49.448;7.904;2023-02-04T10:48:04;100018.44;;;5.94;74.31
46392;BME280;32098;49.448;7.904;2023-02-04T10:50:30;100019.56;;;6.17;74.97
46392;BME280;32098;49.448;7.904;2023-02-04T10:52:58;100015.97;;;6.26;76.38
46392;BME280;32098;49.448;7.904;2023-02-04T10:55:47;100022.91;;;6.27;74.01
46392;BME280;32098;49.448;7.904;2023-02-04T10:58:19;100010.66;;;6.26;72.62
46392;BME280;32098;49.448;7.904;2023-02-04T11:00:47;99997.41;;;6.26;73.32
46392;BME280;32098;49.448;7.904;2023-02-04T11:03:20;100009.44;;;6.54;74.33
46392;BME280;32098;49.448;7.904;2023-02-04T11:05:48;100002.34;;;6.63;73.88
46392;BME280;32098;49.448;7.904;2023-02-04T11:08:20;100010.00;;;6.66;73.56
46392;BME280;32098;49.448;7.904;2023-02-04T11:10:55;100014.09;;;6.52;72.47
46392;BME280;32098;49.448;7.904;2023-02-04T11:14:17;100005.97;;;6.54;71.63
46392;BME280;32098;49.448;7.904;2023-02-04T11:16:32;100010.75;;;6.50;71.47
46392;BME280;32098;49.448;7.904;2023-02-04T11:19:05;100002.94;;;6.41;70.71
46392;BME280;32098;49.448;7.904;2023-02-04T11:24:21;99996.06;;;6.30;71.44
46392;BME280;32098;49.448;7.904;2023-02-04T11:26:52;99988.28;;;6.29;70.76
46392;BME280;32098;49.448;7.904;2023-02-04T11:29:32;99985.59;;;6.21;70.60
46392;BME280;32098;49.448;7.904;2023-02-04T11:32:12;99998.19;;;6.19;70.73
46392;BME280;32098;49.448;7.904;2023-02-04T11:34:52;100000.06;;;6.26;70.86
46392;BME280;32098;49.448;7.904;2023-02-04T11:37:34;100002.03;;;6.24;69.91
46392;BME280;32098;49.448;7.904;2023-02-04T11:40:19;100012.13;;;6.21;70.22
46392;BME280;32098;49.448;7.904;2023-02-04T11:42:46;99986.25;;;5.89;70.76
46392;BME280;32098;49.448;7.904;2023-02-04T11:45:22;100012.31;;;6.27;70.15
46392;BME280;32098;49.448;7.904;2023-02-04T11:47:50;100012.88;;;6.39;69.85
46392;BME280;32098;49.448;7.904;2023-02-04T11:50:32;100007.84;;;6.28;70.39
46392;BME280;32098;49.448;7.904;2023-02-04T11:53:00;100012.00;;;6.30;69.98
46392;BME280;32098;49.448;7.904;2023-02-04T11:55:33;100006.88;;;6.29;69.84
46392;BME280;32098;49.448;7.904;2023-02-04T11:58:00;100011.72;;;6.08;69.21
46392;BME280;32098;49.448;7.904;2023-02-04T12:00:31;100002.25;;;6.05;69.15
46392;BME280;32098;49.448;7.904;2023-02-04T12:03:03;100006.72;;;6.04;70.30
46392;BME280;32098;49.448;7.904;2023-02-04T12:05:42;100009.94;;;5.90;69.92
46392;BME280;32098;49.448;7.904;2023-02-04T12:08:24;100003.94;;;5.63;70.24
46392;BME280;32098;49.448;7.904;2023-02-04T12:13:24;100002.06;;;5.55;70.53
46392;BME280;32098;49.448;7.904;2023-02-04T12:16:03;99999.31;;;5.65;70.83
46392;BME280;32098;49.448;7.904;2023-02-04T12:18:32;100003.19;;;5.70;70.70
46392;BME280;32098;49.448;7.904;2023-02-04T12:20:59;100015.22;;;5.65;68.29
46392;BME280;32098;49.448;7.904;2023-02-04T12:23:27;100010.06;;;5.81;69.60
46392;BME280;32098;49.448;7.904;2023-02-04T12:25:54;100006.81;;;5.95;70.80
46392;BME280;32098;49.448;7.904;2023-02-04T12:28:21;99989.22;;;6.12;71.54
46392;BME280;32098;49.448;7.904;2023-02-04T12:30:49;100002.25;;;6.39;70.04
46392;BME280;32098;49.448;7.904;2023-02-04T12:33:15;99993.38;;;6.56;69.66
46392;BME280;32098;49.448;7.904;2023-02-04T12:35:41;100002.19;;;6.56;67.97
46392;BME280;32098;49.448;7.904;2023-02-04T12:38:08;100007.22;;;6.76;69.42
46392;BME280;32098;49.448;7.904;2023-02-04T12:40:36;100004.78;;;6.98;69.36
46392;BME280;32098;49.448;7.904;2023-02-04T12:43:02;100006.13;;;7.10;67.21
46392;BME280;32098;49.448;7.904;2023-02-04T12:45:29;99989.56;;;7.16;67.35
46392;BME280;32098;49.448;7.904;2023-02-04T12:47:57;100002.19;;;7.39;67.68
46392;BME280;32098;49.448;7.904;2023-02-04T12:50:23;99997.88;;;7.54;67.91
46392;BME280;32098;49.448;7.904;2023-02-04T12:52:53;99994.88;;;7.65;68.08
46392;BME280;32098;49.448;7.904;2023-02-04T12:55:21;99994.22;;;7.79;67.19
46392;BME280;32098;49.448;7.904;2023-02-04T12:57:48;100004.53;;;7.82;65.76
46392;BME280;32098;49.448;7.904;2023-02-04T13:00:16;100007.50;;;7.71;62.79
46392;BME280;32098;49.448;7.904;2023-02-04T13:02:43;99981.44;;;7.26;61.15
46392;BME280;32098;49.448;7.904;2023-02-04T13:05:10;100015.13;;;7.17;62.95
46392;BME280;32098;49.448;7.904;2023-02-04T13:07:37;100006.00;;;7.12;62.26
46392;BME280;32098;49.448;7.904;2023-02-04T13:10:07;100003.78;;;6.99;63.76
46392;BME280;32098;49.448;7.904;2023-02-04T13:12:34;100004.03;;;6.64;59.59
46392;BME280;32098;49.448;7.904;2023-02-04T13:15:00;99995.19;;;6.55;58.23
46392;BME280;32098;49.448;7.904;2023-02-04T13:17:27;100001.97;;;6.50;58.94
46392;BME280;32098;49.448;7.904;2023-02-04T13:19:53;100007.09;;;6.43;59.00
46392;BME280;32098;49.448;7.904;2023-02-04T13:22:20;100009.06;;;6.41;59.32